Impacts TAF Board
For situational awareness. Not to be used for flight planning purposes.
IDs:

KATL - Atlanta/Hartsfield-J, GA, US

Issued at 1552 UTC 24 Sep 2018
Updated at 1702 UTC 24 Sep 2018
Potential Impact None Slight Moderate High
Time<<25/18Z 25/19Z 25/20Z 25/21Z 25/22Z 25/23Z 26/00Z 26/01Z 26/02Z 26/03Z 26/04Z 26/05Z 26/06Z
Type
VIS
CIG
Cover
FltCat
WX
WDir
WSpd
WGst
Raw TAF
KATL 241552Z 2416/2518 13008KT P6SM SCT009 BKN015
  FM241800 12009KT P6SM VCSH BKN025
  TEMPO 2421/2423 6SM SHRA BKN030
  FM250000 11010KT P6SM VCSH SCT015 BKN040 OVC180
  FM250400 11010KT P6SM SCT010 OVC030
  FM250800 12007KT P6SM VCSH OVC007


METAR Board
Radar Display
Forecast Discussion
For situational awareness. Not to be used for flight planning purposes.